createdAt,value
2019-04-03T00:01:59.141Z,95395.91
2019-04-03T00:04:26.953Z,95399.13
2019-04-03T00:06:54.678Z,95397.92
2019-04-03T00:09:22.532Z,95393.35
2019-04-03T00:11:50.381Z,95396.20
2019-04-03T00:14:18.104Z,95383.84
2019-04-03T00:16:46.097Z,95387.66
2019-04-03T00:19:13.915Z,95391.44
2019-04-03T00:21:41.739Z,95388.66
2019-04-03T00:24:09.485Z,95388.02
2019-04-03T00:26:37.364Z,95381.33
2019-04-03T00:29:05.111Z,95379.14
2019-04-03T00:31:32.897Z,95382.42
2019-04-03T00:34:00.885Z,95385.41
2019-04-03T00:36:28.603Z,95383.31
2019-04-03T00:38:56.520Z,95378.84
2019-04-03T00:41:25.108Z,95380.70
2019-04-03T00:43:54.493Z,95378.30
2019-04-03T00:46:22.775Z,95374.58
2019-04-03T00:48:51.977Z,95366.80
2019-04-03T00:51:19.753Z,95374.19
2019-04-03T00:53:47.445Z,95366.68
2019-04-03T00:56:15.366Z,95359.90
2019-04-03T00:58:43.155Z,95344.60
2019-04-03T01:01:11.024Z,95344.60
2019-04-03T01:03:38.715Z,95339.19
2019-04-03T01:06:06.613Z,95340.86
2019-04-03T01:08:34.411Z,95340.86
2019-04-03T01:11:02.315Z,95363.81
2019-04-03T01:13:31.349Z,95365.15
2019-04-03T01:16:02.099Z,95359.50
2019-04-03T01:18:29.574Z,95334.88
2019-04-03T01:20:57.316Z,95356.76
2019-04-03T01:23:25.042Z,95356.76
2019-04-03T01:25:52.776Z,95343.37
2019-04-03T01:28:20.692Z,95343.37
2019-04-03T01:30:48.816Z,95351.56
2019-04-03T01:33:17.174Z,95349.98
2019-04-03T01:35:47.126Z,95351.37
2019-04-03T01:38:14.775Z,95346.46
2019-04-03T01:40:42.467Z,95352.89
2019-04-03T01:43:10.264Z,95343.87
2019-04-03T01:45:38.176Z,95345.19
2019-04-03T01:48:06.034Z,95341.84
2019-04-03T01:50:33.794Z,95342.08
2019-04-03T01:53:02.414Z,95336.06
2019-04-03T01:55:30.619Z,95338.30
2019-04-03T01:57:58.450Z,95337.95
2019-04-03T02:00:26.315Z,95328.13
2019-04-03T02:02:53.996Z,95331.66
2019-04-03T02:05:21.836Z,95329.14
2019-04-03T02:07:49.818Z,95328.66
2019-04-03T02:10:18.314Z,95325.81
2019-04-03T02:12:46.226Z,95324.77
2019-04-03T02:15:14.144Z,95324.77
2019-04-03T02:17:41.856Z,95329.66
2019-04-03T02:20:09.605Z,95320.50
2019-04-03T02:22:37.571Z,95322.87
2019-04-03T02:25:05.442Z,95328.22
2019-04-03T02:27:33.867Z,95333.99
2019-04-03T02:30:02.005Z,95329.92
2019-04-03T02:32:29.968Z,95329.41
2019-04-03T02:34:57.800Z,95333.28
2019-04-03T02:37:25.560Z,95331.02
2019-04-03T02:39:53.551Z,95331.02
2019-04-03T02:42:21.473Z,95333.55
2019-04-03T02:44:51.240Z,95333.55
2019-04-03T02:47:18.897Z,95312.76
2019-04-03T02:49:46.987Z,95331.52
2019-04-03T02:52:14.793Z,95321.97
2019-04-03T02:54:42.611Z,95335.75
2019-04-03T02:57:10.452Z,95327.97
2019-04-03T02:59:38.551Z,95325.02
2019-04-03T03:02:06.422Z,95329.97
2019-04-03T03:04:34.175Z,95329.97
2019-04-03T03:07:04.489Z,95328.39
2019-04-03T03:09:31.337Z,95328.03
2019-04-03T03:11:59.209Z,95333.58
2019-04-03T03:14:27.731Z,95334.81
2019-04-03T03:16:55.930Z,95335.23
2019-04-03T03:19:24.178Z,95334.05
2019-04-03T03:21:52.310Z,95341.27
2019-04-03T03:24:20.209Z,95339.09
2019-04-03T03:26:48.166Z,95336.94
2019-04-03T03:29:19.481Z,95343.37
2019-04-03T03:32:05.250Z,95338.84
2019-04-03T03:34:15.453Z,95339.50
2019-04-03T03:36:43.624Z,95340.47
2019-04-03T03:39:12.175Z,95340.62
2019-04-03T03:41:39.967Z,95341.97
2019-04-03T03:44:10.529Z,95339.44
2019-04-03T03:46:37.519Z,95341.24
2019-04-03T03:49:05.437Z,95336.19
2019-04-03T03:51:33.158Z,95336.19
2019-04-03T03:54:01.031Z,95332.43
2019-04-03T03:56:31.249Z,95334.34
2019-04-03T03:58:58.919Z,95331.30
2019-04-03T04:01:30.202Z,95331.30
2019-04-03T04:03:56.590Z,95335.90
2019-04-03T04:06:27.931Z,95343.95
2019-04-03T04:08:53.942Z,95337.48
2019-04-03T04:11:21.654Z,95348.93
2019-04-03T04:13:50.048Z,95340.62
2019-04-03T04:16:18.685Z,95344.08
2019-04-03T04:18:46.796Z,95345.88
2019-04-03T04:21:14.506Z,95344.81
2019-04-03T04:23:42.224Z,95349.94
2019-04-03T04:26:10.353Z,95350.87
2019-04-03T04:28:40.221Z,95350.25
2019-04-03T04:31:07.714Z,95357.48
2019-04-03T04:33:35.306Z,95357.48
2019-04-03T04:36:03.378Z,95333.97
2019-04-03T04:38:30.907Z,95333.97
2019-04-03T04:41:01.387Z,95353.55
2019-04-03T04:43:28.272Z,95349.74
2019-04-03T04:45:55.978Z,95349.80
2019-04-03T04:48:24.083Z,95353.27
2019-04-03T04:50:54.244Z,95336.25
2019-04-03T04:53:21.517Z,95336.25
2019-04-03T04:55:49.212Z,95361.27
2019-04-03T04:58:17.276Z,95356.95
2019-04-03T05:00:47.561Z,95354.48
2019-04-03T05:03:14.760Z,95354.48
2019-04-03T05:05:42.453Z,95349.81
2019-04-03T05:08:10.361Z,95354.56
2019-04-03T05:10:38.467Z,95348.75
2019-04-03T05:13:06.492Z,95353.97
2019-04-03T05:15:34.283Z,95348.62
2019-04-03T05:18:02.293Z,95352.86
2019-04-03T05:20:30.275Z,95334.80
2019-04-03T05:22:58.088Z,95334.80
2019-04-03T05:25:25.876Z,95348.61
2019-04-03T05:27:53.586Z,95352.06
2019-04-03T05:30:22.073Z,95349.48
2019-04-03T05:33:01.809Z,95331.53
2019-04-03T05:35:29.598Z,95331.53
2019-04-03T05:37:57.372Z,95344.84
2019-04-03T05:40:26.182Z,95344.66
2019-04-03T05:42:54.382Z,95349.47
2019-04-03T05:45:22.480Z,95341.55
2019-04-03T05:47:50.290Z,95328.29
2019-04-03T05:50:18.157Z,95336.06
2019-04-03T05:52:46.031Z,95336.06
2019-04-03T05:55:13.750Z,95331.83
2019-04-03T05:57:41.652Z,95339.38
2019-04-03T06:00:09.417Z,95330.02
2019-04-03T06:02:37.342Z,95330.02
2019-04-03T06:05:06.750Z,95330.05
2019-04-03T06:07:34.635Z,95330.15
2019-04-03T06:10:02.833Z,95333.33
2019-04-03T06:12:30.574Z,95327.09
2019-04-03T06:14:58.599Z,95326.43
2019-04-03T06:17:26.671Z,95332.36
2019-04-03T06:19:54.625Z,95318.85
2019-04-03T06:22:22.643Z,95327.89
2019-04-03T06:24:50.573Z,95323.16
2019-04-03T06:27:19.639Z,95325.37
2019-04-03T06:29:48.638Z,95328.84
2019-04-03T06:32:17.164Z,95325.25
2019-04-03T06:34:44.903Z,95320.55
2019-04-03T06:37:12.682Z,95318.98
2019-04-03T06:39:40.412Z,95314.17
2019-04-03T06:42:08.209Z,95316.33
2019-04-03T06:44:36.118Z,95310.06
2019-04-03T06:47:03.930Z,95314.73
2019-04-03T06:49:31.626Z,95315.63
2019-04-03T06:51:59.308Z,95313.70
2019-04-03T06:54:27.177Z,95313.55
2019-04-03T06:56:55.316Z,95311.64
2019-04-03T06:59:23.196Z,95312.00
2019-04-03T07:01:52.922Z,95314.94
2019-04-03T07:04:20.450Z,95321.89
2019-04-03T07:06:48.219Z,95318.78
2019-04-03T07:09:22.711Z,95315.97
2019-04-03T07:11:45.377Z,95314.94
2019-04-03T07:14:13.070Z,95316.09
2019-04-03T07:16:41.103Z,95322.02
2019-04-03T07:19:09.090Z,95310.41
2019-04-03T07:21:36.914Z,95315.22
2019-04-03T07:24:04.622Z,95319.33
2019-04-03T07:26:33.633Z,95309.34
2019-04-03T07:29:01.914Z,95316.37
2019-04-03T07:31:29.680Z,95307.46
2019-04-03T07:33:58.598Z,95311.33
2019-04-03T07:36:27.041Z,95319.95
2019-04-03T07:38:57.889Z,95318.72
2019-04-03T07:41:24.804Z,95317.48
2019-04-03T07:43:52.685Z,95311.11
2019-04-03T07:46:20.433Z,95316.88
2019-04-03T07:48:48.144Z,95316.28
2019-04-03T07:51:16.118Z,95317.39
2019-04-03T07:53:44.010Z,95316.42
2019-04-03T07:56:11.758Z,95320.00
2019-04-03T07:58:39.682Z,95315.25
2019-04-03T08:01:09.536Z,95312.69
2019-04-03T08:03:37.301Z,95314.98
2019-04-03T08:06:05.352Z,95314.44
2019-04-03T08:08:33.686Z,95313.05
2019-04-03T08:11:01.873Z,95312.08
2019-04-03T08:13:30.607Z,95315.35
2019-04-03T08:15:58.376Z,95310.00
2019-04-03T08:18:26.405Z,95314.20
2019-04-03T08:20:56.288Z,95307.52
2019-04-03T08:23:23.849Z,95303.00
2019-04-03T08:25:53.983Z,95305.33
2019-04-03T08:28:21.314Z,95308.20
2019-04-03T08:30:49.047Z,95305.47
2019-04-03T08:33:19.133Z,95305.56
2019-04-03T08:35:46.557Z,95309.30
2019-04-03T08:38:14.391Z,95307.59
2019-04-03T08:40:42.558Z,95299.28
2019-04-03T08:43:10.797Z,95306.00
2019-04-03T08:45:39.290Z,95299.41
2019-04-03T08:48:07.511Z,95293.91
2019-04-03T08:50:35.303Z,95295.84
2019-04-03T08:53:03.065Z,95293.55
2019-04-03T08:55:30.797Z,95293.75
2019-04-03T08:57:58.901Z,95289.58
2019-04-03T09:00:26.690Z,95288.57
2019-04-03T09:02:54.649Z,95280.67
2019-04-03T09:05:22.504Z,95280.03
2019-04-03T09:07:50.781Z,95275.31
2019-04-03T09:10:18.567Z,95269.85
2019-04-03T09:12:46.575Z,95266.39
2019-04-03T09:15:14.610Z,95268.73
2019-04-03T09:17:42.591Z,95266.68
2019-04-03T09:20:12.603Z,95262.59
2019-04-03T09:22:39.923Z,95260.02
2019-04-03T09:25:07.816Z,95257.16
2019-04-03T09:27:35.900Z,95247.36
2019-04-03T09:30:03.991Z,95238.88
2019-04-03T09:32:32.243Z,95233.02
2019-04-03T09:35:01.339Z,95237.97
2019-04-03T09:37:29.775Z,95229.53
2019-04-03T09:39:57.628Z,95218.59
2019-04-03T09:42:25.457Z,95215.33
2019-04-03T09:44:53.667Z,95216.95
2019-04-03T09:47:22.863Z,95214.28
2019-04-03T09:49:50.627Z,95205.24
2019-04-03T09:52:18.353Z,95206.91
2019-04-03T09:54:46.316Z,95202.53
2019-04-03T09:57:14.382Z,95200.16
2019-04-03T09:59:42.230Z,95196.69
2019-04-03T10:02:10.266Z,95188.72
2019-04-03T10:04:38.073Z,95189.88
2019-04-03T10:07:06.135Z,95174.97
2019-04-03T10:09:34.204Z,95177.92
2019-04-03T10:12:02.094Z,95172.33
2019-04-03T10:14:29.870Z,95170.28
2019-04-03T10:16:57.699Z,95170.00
2019-04-03T10:19:25.568Z,95160.81
2019-04-03T10:21:53.569Z,95150.61
2019-04-03T10:24:21.576Z,95158.05
2019-04-03T10:26:49.542Z,95154.27
2019-04-03T10:29:19.075Z,95152.75
2019-04-03T10:31:46.774Z,95152.34
2019-04-03T10:34:14.837Z,95142.73
2019-04-03T10:36:43.713Z,95144.31
2019-04-03T10:39:11.745Z,95140.86
2019-04-03T10:41:39.473Z,95126.33
2019-04-03T10:44:09.288Z,95126.94
2019-04-03T10:46:37.078Z,95115.20
2019-04-03T10:49:05.057Z,95122.47
2019-04-03T10:51:32.992Z,95118.49
2019-04-03T10:54:00.933Z,95110.66
2019-04-03T10:56:29.321Z,95108.80
2019-04-03T10:59:09.494Z,95104.83
2019-04-03T11:01:27.759Z,95101.58
2019-04-03T11:03:55.518Z,95091.78
2019-04-03T11:06:23.404Z,95102.55
2019-04-03T11:08:51.401Z,95093.19
2019-04-03T11:11:19.392Z,95094.17
2019-04-03T11:13:47.223Z,95084.81
2019-04-03T11:16:15.762Z,95081.48
2019-04-03T11:18:56.769Z,95076.14
2019-04-03T11:21:13.815Z,95070.16
2019-04-03T11:23:44.899Z,95069.27
2019-04-03T11:26:11.152Z,95066.87
2019-04-03T11:28:39.154Z,95061.94
2019-04-03T11:31:07.208Z,95053.48
2019-04-03T11:33:35.459Z,95049.28
2019-04-03T11:36:03.405Z,95047.83
2019-04-03T11:38:31.304Z,95046.23
2019-04-03T11:41:11.368Z,95050.60
2019-04-03T11:43:31.205Z,95038.36
2019-04-03T11:45:58.123Z,95039.25
2019-04-03T11:48:27.306Z,95034.85
2019-04-03T11:50:56.901Z,95031.58
2019-04-03T11:53:25.123Z,95036.00
2019-04-03T11:55:53.077Z,95029.00
2019-04-03T11:58:22.046Z,95019.31
2019-04-03T12:00:51.625Z,95024.91
2019-04-03T12:03:19.671Z,95019.38
2019-04-03T12:05:48.250Z,95009.36
2019-04-03T12:08:16.240Z,95009.48
2019-04-03T12:10:43.992Z,95008.94
2019-04-03T12:13:13.654Z,95007.29
2019-04-03T12:15:41.299Z,94999.52
2019-04-03T12:18:09.065Z,94993.37
2019-04-03T12:20:41.192Z,95002.78
2019-04-03T12:23:06.420Z,94994.81
2019-04-03T12:25:36.461Z,94978.31
2019-04-03T12:28:06.700Z,94988.18
2019-04-03T12:30:33.669Z,94983.81
2019-04-03T12:33:01.583Z,94972.19
2019-04-03T12:35:29.630Z,94982.67
2019-04-03T12:37:57.463Z,94978.08
2019-04-03T12:40:25.829Z,94979.03
2019-04-03T12:42:53.856Z,94968.33
2019-04-03T12:45:21.716Z,94966.32
2019-04-03T12:47:49.402Z,94967.83
2019-04-03T12:50:17.268Z,94965.50
2019-04-03T12:52:45.950Z,94968.42
2019-04-03T12:55:13.964Z,94964.53
2019-04-03T12:57:41.782Z,94960.14
2019-04-03T13:00:12.023Z,94950.78
2019-04-03T13:02:39.279Z,94957.17
2019-04-03T13:05:07.805Z,94957.03
2019-04-03T13:07:37.278Z,94958.25
2019-04-03T13:10:06.949Z,94956.13
2019-04-03T13:12:35.083Z,94959.10
2019-04-03T13:15:05.178Z,94951.96
2019-04-03T13:17:32.382Z,94946.20
2019-04-03T13:20:04.536Z,94948.00
2019-04-03T13:22:29.943Z,94947.80
2019-04-03T13:24:57.858Z,94945.40
2019-04-03T13:27:25.626Z,94945.34
2019-04-03T13:29:53.548Z,94944.86
2019-04-03T13:32:23.066Z,94948.98
2019-04-03T13:34:50.792Z,94946.36
2019-04-03T13:37:22.209Z,94935.44
2019-04-03T13:39:48.439Z,94942.49
2019-04-03T13:42:16.705Z,94935.19
2019-04-03T13:44:45.136Z,94930.66
2019-04-03T13:47:12.907Z,94933.99
2019-04-03T13:49:41.114Z,94939.58
2019-04-03T13:52:10.071Z,94930.73
2019-04-03T13:54:38.466Z,94933.08
2019-04-03T13:57:06.388Z,94935.38
2019-04-03T13:59:34.289Z,94933.02
2019-04-03T14:02:02.097Z,94935.82
2019-04-03T14:04:30.144Z,94931.23
2019-04-03T14:06:58.454Z,94931.99
2019-04-03T14:09:26.305Z,94932.41
2019-04-03T14:11:54.026Z,94930.95
2019-04-03T14:14:22.393Z,94924.39
2019-04-03T14:16:50.477Z,94922.95
2019-04-03T14:19:18.200Z,94918.17
2019-04-03T14:21:46.230Z,94925.67
2019-04-03T14:24:14.098Z,94926.81
2019-04-03T14:26:44.378Z,94928.91
2019-04-03T14:29:11.349Z,94926.28
2019-04-03T14:31:39.165Z,94925.80
2019-04-03T14:34:07.065Z,94921.62
2019-04-03T14:36:34.890Z,94923.94
2019-04-03T14:39:03.767Z,94923.58
2019-04-03T14:41:33.064Z,94914.53
2019-04-03T14:44:02.947Z,94911.95
2019-04-03T14:46:31.347Z,94912.25
2019-04-03T14:49:01.290Z,94909.97
2019-04-03T14:51:28.477Z,94899.81
2019-04-03T14:53:56.581Z,94901.94
2019-04-03T14:56:24.940Z,94900.75
2019-04-03T14:58:52.722Z,94904.00
2019-04-03T15:01:20.898Z,94904.43
2019-04-03T15:03:49.471Z,94899.95
2019-04-03T15:06:17.712Z,94900.13
2019-04-03T15:08:45.999Z,94914.55
2019-04-03T15:11:13.899Z,94916.05
2019-04-03T15:13:42.071Z,94908.91
2019-04-03T15:16:09.952Z,94912.27
2019-04-03T15:18:38.114Z,94906.37
2019-04-03T15:21:05.968Z,94908.52
2019-04-03T15:23:35.365Z,94902.05
2019-04-03T15:26:03.352Z,94915.41
2019-04-03T15:28:31.845Z,94908.59
2019-04-03T15:31:00.903Z,94913.55
2019-04-03T15:33:28.741Z,94908.84
2019-04-03T15:35:56.537Z,94910.92
2019-04-03T15:38:24.466Z,94913.65
2019-04-03T15:40:52.360Z,94918.95
2019-04-03T15:43:20.370Z,94911.56
2019-04-03T15:45:48.594Z,94921.64
2019-04-03T15:48:16.402Z,94916.59
2019-04-03T15:50:44.317Z,94919.35
2019-04-03T15:53:12.538Z,94925.66
2019-04-03T15:55:40.622Z,94921.84
2019-04-03T15:58:08.416Z,94918.98
2019-04-03T16:00:36.678Z,94923.07
2019-04-03T16:03:04.962Z,94923.75
2019-04-03T16:05:35.660Z,94931.63
2019-04-03T16:08:02.972Z,94928.76
2019-04-03T16:10:30.830Z,94933.94
2019-04-03T16:12:58.938Z,94925.67
2019-04-03T16:15:27.055Z,94924.37
2019-04-03T16:17:55.426Z,94931.72
2019-04-03T16:20:23.336Z,94933.18
2019-04-03T16:22:51.441Z,94934.52
2019-04-03T16:25:20.028Z,94932.91
2019-04-03T16:27:47.912Z,94943.09
2019-04-03T16:30:17.284Z,94937.42
2019-04-03T16:32:46.213Z,94937.54
2019-04-03T16:35:14.792Z,94933.32
2019-04-03T16:37:43.095Z,94935.71
2019-04-03T16:40:11.277Z,94941.73
2019-04-03T16:42:39.434Z,94937.55
2019-04-03T16:45:09.110Z,94937.52
2019-04-03T16:47:37.158Z,94940.51
2019-04-03T16:50:04.995Z,94938.11
2019-04-03T16:52:36.226Z,94940.27
2019-04-03T16:55:02.401Z,94939.72
2019-04-03T16:57:30.242Z,94945.47
2019-04-03T16:59:58.128Z,94939.83
2019-04-03T17:02:27.934Z,94948.58
2019-04-03T17:04:56.274Z,94939.73
2019-04-03T17:07:24.284Z,94953.97
2019-04-03T17:09:52.196Z,94952.31
2019-04-03T17:12:20.127Z,94955.13
2019-04-03T17:14:48.097Z,94954.46
2019-04-03T17:17:17.294Z,94954.30
2019-04-03T17:19:45.689Z,94958.33
2019-04-03T17:22:14.406Z,94963.29
2019-04-03T17:24:47.882Z,94973.83
2019-04-03T17:27:11.793Z,94974.00
2019-04-03T17:29:39.552Z,94976.55
2019-04-03T17:32:09.605Z,94976.20
2019-04-03T17:34:42.068Z,94976.02
2019-04-03T17:37:07.852Z,94974.02
2019-04-03T17:39:36.315Z,94976.83
2019-04-03T17:42:04.365Z,94986.21
2019-04-03T17:44:32.318Z,94992.41
2019-04-03T17:47:00.529Z,94991.38
2019-04-03T17:49:29.935Z,94992.71
2019-04-03T17:58:07.951Z,95001.58
2019-04-03T18:00:35.567Z,95005.22
2019-04-03T18:03:03.114Z,95009.66
2019-04-03T18:05:33.296Z,95009.56
2019-04-03T18:08:01.635Z,95018.16
2019-04-03T18:10:33.296Z,95015.95
2019-04-03T18:13:05.365Z,95024.50
2019-04-03T18:15:35.011Z,95017.04
2019-04-03T18:18:03.468Z,95026.16
2019-04-03T18:20:31.673Z,95036.70
2019-04-03T18:22:59.365Z,95031.73
2019-04-03T18:25:28.812Z,95036.97
2019-04-03T18:27:56.432Z,95040.50
2019-04-03T18:30:24.626Z,95043.98
2019-04-03T18:32:52.312Z,95047.20
2019-04-03T18:35:20.217Z,95046.80
2019-04-03T18:37:48.563Z,95047.98
2019-04-03T18:40:16.969Z,95048.20
2019-04-03T18:42:45.341Z,95049.39
2019-04-03T18:45:24.473Z,95045.24
2019-04-03T18:47:45.890Z,95043.37
2019-04-03T18:50:14.490Z,95047.77
2019-04-03T18:52:43.266Z,95042.27
2019-04-03T18:55:14.163Z,95043.78
2019-04-03T18:57:42.307Z,95038.87
2019-04-03T19:00:11.058Z,95042.99
2019-04-03T19:02:39.270Z,95037.09
2019-04-03T19:05:10.043Z,95044.61
2019-04-03T19:07:37.286Z,95035.99
2019-04-03T19:10:07.459Z,95033.55
2019-04-03T19:12:36.152Z,95045.85
2019-04-03T19:15:04.173Z,95037.68
2019-04-03T19:17:32.292Z,95040.37
2019-04-03T19:20:10.366Z,95040.80
2019-04-03T19:22:30.033Z,95037.34
2019-04-03T19:24:58.745Z,95038.55
2019-04-03T19:27:27.192Z,95039.20
2019-04-03T19:29:55.164Z,95042.03
2019-04-03T19:32:22.981Z,95041.23
2019-04-03T19:34:52.353Z,95045.77
2019-04-03T19:37:20.422Z,95044.08
2019-04-03T19:39:48.260Z,95043.38
2019-04-03T19:42:16.146Z,95049.47
2019-04-03T19:44:43.908Z,95045.80
2019-04-03T19:47:12.254Z,95050.72
2019-04-03T19:49:40.381Z,95049.19
2019-04-03T19:52:08.472Z,95045.25
2019-04-03T19:54:36.417Z,95049.27
2019-04-03T19:57:04.469Z,95049.53
2019-04-03T19:59:34.596Z,95053.19
2019-04-03T20:02:01.663Z,95053.41
2019-04-03T20:04:29.450Z,95052.92
2019-04-03T20:06:57.908Z,95049.03
2019-04-03T20:09:25.647Z,95057.28
2019-04-03T20:11:53.486Z,95055.07
2019-04-03T20:14:21.416Z,95045.45
2019-04-03T20:16:49.139Z,95053.64
2019-04-03T20:19:17.261Z,95057.03
2019-04-03T20:21:45.226Z,95055.41
2019-04-03T20:24:13.400Z,95054.78
2019-04-03T20:26:41.378Z,95050.48
2019-04-03T20:29:09.232Z,95057.05
2019-04-03T20:31:37.154Z,95057.74
2019-04-03T20:34:04.955Z,95067.24
2019-04-03T20:36:32.732Z,95061.52
2019-04-03T20:39:00.631Z,95069.43
2019-04-03T20:41:28.477Z,95064.88
2019-04-03T20:43:56.215Z,95071.22
2019-04-03T20:46:24.439Z,95068.05
2019-04-03T20:48:52.495Z,95068.69
2019-04-03T20:51:20.342Z,95065.47
2019-04-03T20:53:50.030Z,95059.73
2019-04-03T20:56:17.504Z,95065.27
2019-04-03T20:58:55.395Z,95072.66
2019-04-03T21:01:14.709Z,95071.67
2019-04-03T21:03:43.778Z,95069.46
2019-04-03T21:06:11.893Z,95066.88
2019-04-03T21:08:39.662Z,95066.27
2019-04-03T21:11:07.513Z,95077.06
2019-04-03T21:13:35.275Z,95079.09
2019-04-03T21:16:03.016Z,95081.48
2019-04-03T21:18:30.910Z,95078.21
2019-04-03T21:21:01.251Z,95078.78
2019-04-03T21:23:28.313Z,95070.97
2019-04-03T21:25:56.262Z,95082.72
2019-04-03T21:28:23.994Z,95090.05
2019-04-03T21:30:54.641Z,95091.16
2019-04-03T21:33:21.702Z,95096.95
2019-04-03T21:35:49.495Z,95089.81
2019-04-03T21:38:17.274Z,95093.78
2019-04-03T21:40:47.006Z,95094.58
2019-04-03T21:43:14.723Z,95102.42
2019-04-03T21:45:42.538Z,95097.09
2019-04-03T21:48:11.913Z,95095.09
2019-04-03T21:50:39.999Z,95102.49
2019-04-03T21:53:07.734Z,95105.19
2019-04-03T21:55:35.618Z,95105.26
2019-04-03T21:58:03.357Z,95104.03
2019-04-03T22:00:36.761Z,95107.27
2019-04-03T22:03:06.771Z,95103.92
2019-04-03T22:05:34.000Z,95103.89
2019-04-03T22:08:01.739Z,95108.45
2019-04-03T22:10:32.791Z,95109.97
2019-04-03T22:12:59.344Z,95108.81
2019-04-03T22:15:27.173Z,95108.54
2019-04-03T22:17:54.899Z,95106.91
2019-04-03T22:20:22.758Z,95106.31
2019-04-03T22:22:50.651Z,95105.60
2019-04-03T22:25:18.542Z,95107.29
2019-04-03T22:27:46.415Z,95104.03
2019-04-03T22:30:14.234Z,95097.10
2019-04-03T22:32:42.133Z,95099.78
2019-04-03T22:35:10.005Z,95100.64
2019-04-03T22:37:37.735Z,95110.70
2019-04-03T22:40:05.628Z,95105.41
2019-04-03T22:42:33.603Z,95113.53
2019-04-03T22:45:01.461Z,95107.19
2019-04-03T22:47:29.543Z,95106.30
2019-04-03T22:49:57.435Z,95104.81
2019-04-03T22:52:25.300Z,95110.58
2019-04-03T22:54:53.044Z,95108.73
2019-04-03T22:57:20.931Z,95109.86
2019-04-03T22:59:48.724Z,95099.11
2019-04-03T23:02:16.660Z,95101.31
2019-04-03T23:04:46.287Z,95103.86
2019-04-03T23:07:14.046Z,95098.17
2019-04-03T23:09:41.891Z,95103.30
2019-04-03T23:12:09.678Z,95101.45
2019-04-03T23:14:38.466Z,95089.83
2019-04-03T23:17:06.777Z,95093.51
2019-04-03T23:19:34.633Z,95096.57
2019-04-03T23:22:02.496Z,95090.20
2019-04-03T23:24:30.375Z,95091.39
2019-04-03T23:26:58.147Z,95092.31
2019-04-03T23:29:25.901Z,95091.03
2019-04-03T23:31:53.781Z,95094.20
2019-04-03T23:34:21.611Z,95099.03
2019-04-03T23:36:49.478Z,95097.84
2019-04-03T23:39:17.354Z,95090.88
2019-04-03T23:41:45.317Z,95091.38
2019-04-03T23:44:13.191Z,95087.78
2019-04-03T23:46:41.253Z,95087.33
2019-04-03T23:49:09.205Z,95091.14
2019-04-03T23:51:36.996Z,95082.98
2019-04-03T23:54:04.772Z,95091.16
2019-04-03T23:56:32.664Z,95084.19
2019-04-03T23:59:00.609Z,95082.61
